sensor_id;sensor_type;location;lat;lon;timestamp;temperature;humidity
64396;DHT22;50717;53.360;6.290;2022-08-19T00:00:03;15.80;99.90
64396;DHT22;50717;53.360;6.290;2022-08-19T00:02:29;15.90;99.90
64396;DHT22;50717;53.360;6.290;2022-08-19T00:04:54;15.70;99.90
64396;DHT22;50717;53.360;6.290;2022-08-19T00:07:20;15.80;99.90
64396;DHT22;50717;53.360;6.290;2022-08-19T00:09:46;15.50;99.90
64396;DHT22;50717;53.360;6.290;2022-08-19T00:12:12;15.80;99.90
64396;DHT22;50717;53.360;6.290;2022-08-19T00:14:38;15.40;99.90
64396;DHT22;50717;53.360;6.290;2022-08-19T00:17:06;15.30;99.90
64396;DHT22;50717;53.360;6.290;2022-08-19T00:19:32;15.60;99.90
64396;DHT22;50717;53.360;6.290;2022-08-19T00:21:58;15.50;99.90
64396;DHT22;50717;53.360;6.290;2022-08-19T00:24:24;15.50;99.90
64396;DHT22;50717;53.360;6.290;2022-08-19T00:26:50;15.50;99.90
64396;DHT22;50717;53.360;6.290;2022-08-19T00:29:17;15.40;99.90
64396;DHT22;50717;53.360;6.290;2022-08-19T00:31:44;15.90;99.90
64396;DHT22;50717;53.360;6.290;2022-08-19T00:34:12;13.30;99.90
64396;DHT22;50717;53.360;6.290;2022-08-19T00:36:39;15.50;99.90
64396;DHT22;50717;53.360;6.290;2022-08-19T00:39:05;15.60;99.90
64396;DHT22;50717;53.360;6.290;2022-08-19T00:41:31;15.40;99.90
64396;DHT22;50717;53.360;6.290;2022-08-19T00:44:02;15.30;99.90
64396;DHT22;50717;53.360;6.290;2022-08-19T00:46:29;14.80;99.90
64396;DHT22;50717;53.360;6.290;2022-08-19T00:48:55;16.10;99.90
64396;DHT22;50717;53.360;6.290;2022-08-19T00:51:24;15.40;99.90
64396;DHT22;50717;53.360;6.290;2022-08-19T00:53:53;15.80;99.90
64396;DHT22;50717;53.360;6.290;2022-08-19T00:56:19;15.40;99.90
64396;DHT22;50717;53.360;6.290;2022-08-19T00:58:45;16.20;99.90
64396;DHT22;50717;53.360;6.290;2022-08-19T01:01:10;15.50;99.90
64396;DHT22;50717;53.360;6.290;2022-08-19T01:03:36;14.90;99.90
64396;DHT22;50717;53.360;6.290;2022-08-19T01:06:02;15.30;99.90
64396;DHT22;50717;53.360;6.290;2022-08-19T01:08:28;14.70;99.90
64396;DHT22;50717;53.360;6.290;2022-08-19T01:10:54;15.20;99.90
64396;DHT22;50717;53.360;6.290;2022-08-19T01:13:25;14.80;99.90
64396;DHT22;50717;53.360;6.290;2022-08-19T01:16:03;14.90;99.90
64396;DHT22;50717;53.360;6.290;2022-08-19T01:18:30;15.00;99.90
64396;DHT22;50717;53.360;6.290;2022-08-19T01:21:04;14.80;99.90
64396;DHT22;50717;53.360;6.290;2022-08-19T01:23:32;15.10;99.90
64396;DHT22;50717;53.360;6.290;2022-08-19T01:26:13;14.80;99.90
64396;DHT22;50717;53.360;6.290;2022-08-19T01:28:40;14.90;99.90
64396;DHT22;50717;53.360;6.290;2022-08-19T01:31:09;14.80;99.90
64396;DHT22;50717;53.360;6.290;2022-08-19T01:33:38;15.10;99.90
64396;DHT22;50717;53.360;6.290;2022-08-19T01:36:10;14.90;99.90
64396;DHT22;50717;53.360;6.290;2022-08-19T01:38:39;15.00;99.90
64396;DHT22;50717;53.360;6.290;2022-08-19T01:41:05;15.70;99.90
64396;DHT22;50717;53.360;6.290;2022-08-19T01:43:32;15.00;99.90
64396;DHT22;50717;53.360;6.290;2022-08-19T01:45:58;15.30;99.90
64396;DHT22;50717;53.360;6.290;2022-08-19T01:48:24;14.80;99.90
64396;DHT22;50717;53.360;6.290;2022-08-19T01:50:49;14.70;99.90
64396;DHT22;50717;53.360;6.290;2022-08-19T01:53:15;14.90;99.90
64396;DHT22;50717;53.360;6.290;2022-08-19T01:55:42;14.50;99.90
64396;DHT22;50717;53.360;6.290;2022-08-19T01:58:15;14.50;99.90
64396;DHT22;50717;53.360;6.290;2022-08-19T02:00:42;14.50;99.90
64396;DHT22;50717;53.360;6.290;2022-08-19T02:03:09;15.30;99.90
64396;DHT22;50717;53.360;6.290;2022-08-19T02:05:36;14.80;99.90
64396;DHT22;50717;53.360;6.290;2022-08-19T02:08:02;15.40;99.90
64396;DHT22;50717;53.360;6.290;2022-08-19T02:10:28;14.60;99.90
64396;DHT22;50717;53.360;6.290;2022-08-19T02:12:54;14.50;99.90
64396;DHT22;50717;53.360;6.290;2022-08-19T02:15:20;14.40;99.90
64396;DHT22;50717;53.360;6.290;2022-08-19T02:17:46;14.40;99.90
64396;DHT22;50717;53.360;6.290;2022-08-19T02:20:13;14.30;99.90
64396;DHT22;50717;53.360;6.290;2022-08-19T02:22:40;14.50;99.90
64396;DHT22;50717;53.360;6.290;2022-08-19T02:25:09;14.30;99.90
64396;DHT22;50717;53.360;6.290;2022-08-19T02:27:35;14.00;99.90
64396;DHT22;50717;53.360;6.290;2022-08-19T02:30:01;14.10;99.90
64396;DHT22;50717;53.360;6.290;2022-08-19T02:32:27;14.30;99.90
64396;DHT22;50717;53.360;6.290;2022-08-19T02:34:52;14.20;99.90
64396;DHT22;50717;53.360;6.290;2022-08-19T02:37:18;13.50;99.90
64396;DHT22;50717;53.360;6.290;2022-08-19T02:40:03;14.40;99.90
64396;DHT22;50717;53.360;6.290;2022-08-19T02:42:29;14.40;99.90
64396;DHT22;50717;53.360;6.290;2022-08-19T02:44:55;14.30;99.90
64396;DHT22;50717;53.360;6.290;2022-08-19T02:47:21;14.30;99.90
64396;DHT22;50717;53.360;6.290;2022-08-19T02:49:46;14.30;99.90
64396;DHT22;50717;53.360;6.290;2022-08-19T02:52:15;14.30;99.90
64396;DHT22;50717;53.360;6.290;2022-08-19T02:54:40;14.20;99.90
64396;DHT22;50717;53.360;6.290;2022-08-19T02:57:06;14.10;99.90
64396;DHT22;50717;53.360;6.290;2022-08-19T02:59:34;14.20;99.90
64396;DHT22;50717;53.360;6.290;2022-08-19T03:01:59;14.10;99.90
64396;DHT22;50717;53.360;6.290;2022-08-19T03:04:25;14.20;99.90
64396;DHT22;50717;53.360;6.290;2022-08-19T03:06:51;14.40;99.90
64396;DHT22;50717;53.360;6.290;2022-08-19T03:09:19;14.10;99.90
64396;DHT22;50717;53.360;6.290;2022-08-19T03:11:45;14.60;99.90
64396;DHT22;50717;53.360;6.290;2022-08-19T03:14:11;14.30;99.90
64396;DHT22;50717;53.360;6.290;2022-08-19T03:16:47;14.10;99.90
64396;DHT22;50717;53.360;6.290;2022-08-19T03:19:15;14.00;99.90
64396;DHT22;50717;53.360;6.290;2022-08-19T03:21:42;14.00;99.90
64396;DHT22;50717;53.360;6.290;2022-08-19T03:24:10;14.40;99.90
64396;DHT22;50717;53.360;6.290;2022-08-19T03:26:42;14.00;99.90
64396;DHT22;50717;53.360;6.290;2022-08-19T03:29:08;14.10;99.90
64396;DHT22;50717;53.360;6.290;2022-08-19T03:31:36;14.90;99.90
64396;DHT22;50717;53.360;6.290;2022-08-19T03:34:02;14.20;99.90
64396;DHT22;50717;53.360;6.290;2022-08-19T03:36:28;14.90;99.90
64396;DHT22;50717;53.360;6.290;2022-08-19T03:38:54;14.70;99.90
64396;DHT22;50717;53.360;6.290;2022-08-19T03:41:30;13.70;99.90
64396;DHT22;50717;53.360;6.290;2022-08-19T03:43:57;14.30;99.90
64396;DHT22;50717;53.360;6.290;2022-08-19T03:46:28;13.90;99.90
64396;DHT22;50717;53.360;6.290;2022-08-19T03:48:57;14.20;99.90
64396;DHT22;50717;53.360;6.290;2022-08-19T03:51:33;13.80;99.90
64396;DHT22;50717;53.360;6.290;2022-08-19T03:54:02;13.90;99.90
64396;DHT22;50717;53.360;6.290;2022-08-19T03:56:29;13.90;99.90
64396;DHT22;50717;53.360;6.290;2022-08-19T03:58:55;14.50;99.90
64396;DHT22;50717;53.360;6.290;2022-08-19T04:01:24;13.90;99.90
64396;DHT22;50717;53.360;6.290;2022-08-19T04:03:52;14.00;99.90
64396;DHT22;50717;53.360;6.290;2022-08-19T04:06:21;13.70;99.90
64396;DHT22;50717;53.360;6.290;2022-08-19T04:08:49;13.70;99.90
64396;DHT22;50717;53.360;6.290;2022-08-19T04:11:19;13.60;99.90
64396;DHT22;50717;53.360;6.290;2022-08-19T04:13:47;13.80;99.90
64396;DHT22;50717;53.360;6.290;2022-08-19T04:16:13;14.00;99.90
64396;DHT22;50717;53.360;6.290;2022-08-19T04:18:40;13.50;99.90
64396;DHT22;50717;53.360;6.290;2022-08-19T04:21:07;13.90;99.90
64396;DHT22;50717;53.360;6.290;2022-08-19T04:23:34;13.70;99.90
64396;DHT22;50717;53.360;6.290;2022-08-19T04:26:02;13.30;99.90
64396;DHT22;50717;53.360;6.290;2022-08-19T04:28:28;13.70;99.90
64396;DHT22;50717;53.360;6.290;2022-08-19T04:30:55;13.20;99.90
64396;DHT22;50717;53.360;6.290;2022-08-19T04:33:24;13.20;99.90
64396;DHT22;50717;53.360;6.290;2022-08-19T04:35:52;13.90;99.90
64396;DHT22;50717;53.360;6.290;2022-08-19T04:38:20;13.60;99.90
64396;DHT22;50717;53.360;6.290;2022-08-19T04:40:49;13.70;99.90
64396;DHT22;50717;53.360;6.290;2022-08-19T04:43:35;13.60;99.90
64396;DHT22;50717;53.360;6.290;2022-08-19T04:46:07;13.90;99.90
64396;DHT22;50717;53.360;6.290;2022-08-19T04:48:33;13.80;99.90
64396;DHT22;50717;53.360;6.290;2022-08-19T04:50:59;13.60;99.90
64396;DHT22;50717;53.360;6.290;2022-08-19T04:53:27;13.90;99.90
64396;DHT22;50717;53.360;6.290;2022-08-19T04:55:54;14.70;99.90
64396;DHT22;50717;53.360;6.290;2022-08-19T04:58:20;14.00;99.90
64396;DHT22;50717;53.360;6.290;2022-08-19T05:00:46;14.30;99.90
64396;DHT22;50717;53.360;6.290;2022-08-19T05:03:11;13.80;99.90
64396;DHT22;50717;53.360;6.290;2022-08-19T05:05:40;14.10;99.90
64396;DHT22;50717;53.360;6.290;2022-08-19T05:08:06;14.40;99.90
64396;DHT22;50717;53.360;6.290;2022-08-19T05:10:34;14.40;99.90
64396;DHT22;50717;53.360;6.290;2022-08-19T05:13:00;14.50;99.90
64396;DHT22;50717;53.360;6.290;2022-08-19T05:15:26;14.40;99.90
64396;DHT22;50717;53.360;6.290;2022-08-19T05:17:52;14.10;99.90
64396;DHT22;50717;53.360;6.290;2022-08-19T05:20:38;14.40;99.90
64396;DHT22;50717;53.360;6.290;2022-08-19T05:23:22;14.40;99.90
64396;DHT22;50717;53.360;6.290;2022-08-19T05:25:49;14.50;99.90
64396;DHT22;50717;53.360;6.290;2022-08-19T05:28:16;14.60;99.90
64396;DHT22;50717;53.360;6.290;2022-08-19T05:30:41;14.60;99.90
64396;DHT22;50717;53.360;6.290;2022-08-19T05:33:11;14.90;99.90
64396;DHT22;50717;53.360;6.290;2022-08-19T05:35:38;14.80;99.90
64396;DHT22;50717;53.360;6.290;2022-08-19T05:38:05;15.10;99.90
64396;DHT22;50717;53.360;6.290;2022-08-19T05:40:35;15.40;99.90
64396;DHT22;50717;53.360;6.290;2022-08-19T05:43:05;15.10;99.90
64396;DHT22;50717;53.360;6.290;2022-08-19T05:45:31;15.20;99.90
64396;DHT22;50717;53.360;6.290;2022-08-19T05:47:57;15.40;99.90
64396;DHT22;50717;53.360;6.290;2022-08-19T05:50:25;15.40;99.90
64396;DHT22;50717;53.360;6.290;2022-08-19T05:52:52;15.20;99.90
64396;DHT22;50717;53.360;6.290;2022-08-19T05:55:18;15.50;99.90
64396;DHT22;50717;53.360;6.290;2022-08-19T05:57:46;15.50;99.90
64396;DHT22;50717;53.360;6.290;2022-08-19T06:00:12;15.50;99.90
64396;DHT22;50717;53.360;6.290;2022-08-19T06:02:39;15.50;99.90
64396;DHT22;50717;53.360;6.290;2022-08-19T06:05:06;16.00;99.90
64396;DHT22;50717;53.360;6.290;2022-08-19T06:07:35;15.80;99.90
64396;DHT22;50717;53.360;6.290;2022-08-19T06:10:04;15.70;99.90
64396;DHT22;50717;53.360;6.290;2022-08-19T06:12:31;15.90;99.90
64396;DHT22;50717;53.360;6.290;2022-08-19T06:15:04;16.30;99.90
64396;DHT22;50717;53.360;6.290;2022-08-19T06:17:30;16.20;99.90
64396;DHT22;50717;53.360;6.290;2022-08-19T06:19:56;16.30;99.90
64396;DHT22;50717;53.360;6.290;2022-08-19T06:22:22;16.10;99.90
64396;DHT22;50717;53.360;6.290;2022-08-19T06:24:48;16.60;99.90
64396;DHT22;50717;53.360;6.290;2022-08-19T06:27:18;16.50;99.90
64396;DHT22;50717;53.360;6.290;2022-08-19T06:29:44;16.80;99.90
64396;DHT22;50717;53.360;6.290;2022-08-19T06:32:14;17.00;99.90
64396;DHT22;50717;53.360;6.290;2022-08-19T06:34:40;17.00;99.90
64396;DHT22;50717;53.360;6.290;2022-08-19T06:37:06;17.00;99.90
64396;DHT22;50717;53.360;6.290;2022-08-19T06:39:35;17.30;99.90
64396;DHT22;50717;53.360;6.290;2022-08-19T06:42:02;17.10;99.90
64396;DHT22;50717;53.360;6.290;2022-08-19T06:44:30;17.50;99.90
64396;DHT22;50717;53.360;6.290;2022-08-19T06:47:02;17.20;99.90
64396;DHT22;50717;53.360;6.290;2022-08-19T06:49:28;17.50;99.90
64396;DHT22;50717;53.360;6.290;2022-08-19T06:51:56;17.60;99.90
64396;DHT22;50717;53.360;6.290;2022-08-19T06:54:22;17.60;99.90
64396;DHT22;50717;53.360;6.290;2022-08-19T06:56:48;17.80;99.90
64396;DHT22;50717;53.360;6.290;2022-08-19T06:59:18;17.90;99.90
64396;DHT22;50717;53.360;6.290;2022-08-19T07:01:48;18.20;99.90
64396;DHT22;50717;53.360;6.290;2022-08-19T07:04:23;18.20;99.90
64396;DHT22;50717;53.360;6.290;2022-08-19T07:06:50;18.10;99.90
64396;DHT22;50717;53.360;6.290;2022-08-19T07:09:17;18.50;99.90
64396;DHT22;50717;53.360;6.290;2022-08-19T07:11:48;18.50;99.90
64396;DHT22;50717;53.360;6.290;2022-08-19T07:14:15;18.40;99.90
64396;DHT22;50717;53.360;6.290;2022-08-19T07:16:44;18.90;99.90
64396;DHT22;50717;53.360;6.290;2022-08-19T07:19:11;18.70;99.90
64396;DHT22;50717;53.360;6.290;2022-08-19T07:21:37;18.80;99.90
64396;DHT22;50717;53.360;6.290;2022-08-19T07:24:03;19.10;99.90
64396;DHT22;50717;53.360;6.290;2022-08-19T07:26:32;19.60;99.90
64396;DHT22;50717;53.360;6.290;2022-08-19T07:28:58;19.30;99.90
64396;DHT22;50717;53.360;6.290;2022-08-19T07:31:27;19.50;99.90
64396;DHT22;50717;53.360;6.290;2022-08-19T07:33:54;19.30;99.90
64396;DHT22;50717;53.360;6.290;2022-08-19T07:36:27;19.60;99.90
64396;DHT22;50717;53.360;6.290;2022-08-19T07:38:59;19.70;99.90
64396;DHT22;50717;53.360;6.290;2022-08-19T07:41:25;19.80;99.90
64396;DHT22;50717;53.360;6.290;2022-08-19T07:43:52;20.20;99.90
64396;DHT22;50717;53.360;6.290;2022-08-19T07:46:18;20.10;99.90
64396;DHT22;50717;53.360;6.290;2022-08-19T07:48:47;20.10;99.90
64396;DHT22;50717;53.360;6.290;2022-08-19T07:51:17;19.80;99.90
64396;DHT22;50717;53.360;6.290;2022-08-19T07:53:43;20.40;99.90
64396;DHT22;50717;53.360;6.290;2022-08-19T07:56:11;20.80;99.90
64396;DHT22;50717;53.360;6.290;2022-08-19T07:58:40;20.40;99.90
64396;DHT22;50717;53.360;6.290;2022-08-19T08:01:08;20.40;99.90
64396;DHT22;50717;53.360;6.290;2022-08-19T08:03:36;20.60;99.90
64396;DHT22;50717;53.360;6.290;2022-08-19T08:06:21;21.10;99.90
64396;DHT22;50717;53.360;6.290;2022-08-19T08:09:05;20.90;99.90
64396;DHT22;50717;53.360;6.290;2022-08-19T08:11:39;21.30;99.90
64396;DHT22;50717;53.360;6.290;2022-08-19T08:14:06;21.20;99.90
64396;DHT22;50717;53.360;6.290;2022-08-19T08:16:37;21.30;99.90
64396;DHT22;50717;53.360;6.290;2022-08-19T08:19:06;21.40;99.90
64396;DHT22;50717;53.360;6.290;2022-08-19T08:21:33;21.70;99.90
64396;DHT22;50717;53.360;6.290;2022-08-19T08:23:59;21.80;99.90
64396;DHT22;50717;53.360;6.290;2022-08-19T08:26:25;21.60;99.90
64396;DHT22;50717;53.360;6.290;2022-08-19T08:28:52;21.70;99.90
64396;DHT22;50717;53.360;6.290;2022-08-19T08:31:18;22.10;99.90
64396;DHT22;50717;53.360;6.290;2022-08-19T08:33:45;21.80;99.90
64396;DHT22;50717;53.360;6.290;2022-08-19T08:36:12;22.10;99.90
64396;DHT22;50717;53.360;6.290;2022-08-19T08:38:42;22.40;99.90
64396;DHT22;50717;53.360;6.290;2022-08-19T08:44:01;22.30;99.90
64396;DHT22;50717;53.360;6.290;2022-08-19T08:47:02;22.30;99.90
64396;DHT22;50717;53.360;6.290;2022-08-19T08:49:45;22.30;99.90
64396;DHT22;50717;53.360;6.290;2022-08-19T08:54:46;22.50;99.90
64396;DHT22;50717;53.360;6.290;2022-08-19T08:57:19;23.10;99.90
64396;DHT22;50717;53.360;6.290;2022-08-19T08:59:48;22.50;99.90
64396;DHT22;50717;53.360;6.290;2022-08-19T09:02:18;23.00;99.90
64396;DHT22;50717;53.360;6.290;2022-08-19T09:04:43;22.50;99.90
64396;DHT22;50717;53.360;6.290;2022-08-19T09:07:31;23.00;99.90
64396;DHT22;50717;53.360;6.290;2022-08-19T09:12:53;23.10;99.90
64396;DHT22;50717;53.360;6.290;2022-08-19T09:15:28;23.30;99.90
64396;DHT22;50717;53.360;6.290;2022-08-19T09:17:59;23.30;99.90
64396;DHT22;50717;53.360;6.290;2022-08-19T09:20:27;23.20;99.90
64396;DHT22;50717;53.360;6.290;2022-08-19T09:22:53;23.20;99.90
64396;DHT22;50717;53.360;6.290;2022-08-19T09:25:21;23.30;99.90
64396;DHT22;50717;53.360;6.290;2022-08-19T09:27:51;23.20;99.90
64396;DHT22;50717;53.360;6.290;2022-08-19T09:30:27;23.70;99.90
64396;DHT22;50717;53.360;6.290;2022-08-19T09:32:54;23.50;99.90
64396;DHT22;50717;53.360;6.290;2022-08-19T09:35:26;23.70;99.90
64396;DHT22;50717;53.360;6.290;2022-08-19T09:37:52;23.70;99.90
64396;DHT22;50717;53.360;6.290;2022-08-19T09:40:18;24.10;99.90
64396;DHT22;50717;53.360;6.290;2022-08-19T09:42:45;24.20;99.90
64396;DHT22;50717;53.360;6.290;2022-08-19T09:45:17;24.00;99.90
64396;DHT22;50717;53.360;6.290;2022-08-19T09:47:43;24.00;99.90
64396;DHT22;50717;53.360;6.290;2022-08-19T09:50:11;24.00;99.90
64396;DHT22;50717;53.360;6.290;2022-08-19T09:52:37;24.00;99.90
64396;DHT22;50717;53.360;6.290;2022-08-19T09:55:04;24.40;99.90
64396;DHT22;50717;53.360;6.290;2022-08-19T09:57:30;24.40;99.90
64396;DHT22;50717;53.360;6.290;2022-08-19T09:59:56;24.30;99.90
64396;DHT22;50717;53.360;6.290;2022-08-19T10:02:21;24.70;99.90
64396;DHT22;50717;53.360;6.290;2022-08-19T10:04:47;24.50;99.90
64396;DHT22;50717;53.360;6.290;2022-08-19T10:07:31;24.30;99.90
64396;DHT22;50717;53.360;6.290;2022-08-19T10:09:57;24.40;99.90
64396;DHT22;50717;53.360;6.290;2022-08-19T10:12:22;24.30;99.90
64396;DHT22;50717;53.360;6.290;2022-08-19T10:14:48;24.80;99.90
64396;DHT22;50717;53.360;6.290;2022-08-19T10:17:16;24.80;99.90
64396;DHT22;50717;53.360;6.290;2022-08-19T10:19:43;24.90;99.90
64396;DHT22;50717;53.360;6.290;2022-08-19T10:22:08;25.00;99.90
64396;DHT22;50717;53.360;6.290;2022-08-19T10:24:36;24.70;99.90
64396;DHT22;50717;53.360;6.290;2022-08-19T10:27:02;24.90;99.90
64396;DHT22;50717;53.360;6.290;2022-08-19T10:29:29;25.10;99.90
64396;DHT22;50717;53.360;6.290;2022-08-19T10:31:55;25.20;99.90
64396;DHT22;50717;53.360;6.290;2022-08-19T10:34:23;25.60;99.90
64396;DHT22;50717;53.360;6.290;2022-08-19T10:36:48;25.50;99.90
64396;DHT22;50717;53.360;6.290;2022-08-19T10:39:15;25.40;99.90
64396;DHT22;50717;53.360;6.290;2022-08-19T10:41:40;25.40;99.90
64396;DHT22;50717;53.360;6.290;2022-08-19T10:44:12;25.30;99.90
64396;DHT22;50717;53.360;6.290;2022-08-19T10:46:40;25.50;99.90
64396;DHT22;50717;53.360;6.290;2022-08-19T10:49:08;25.50;99.90
64396;DHT22;50717;53.360;6.290;2022-08-19T10:51:34;25.30;99.90
64396;DHT22;50717;53.360;6.290;2022-08-19T10:54:18;25.00;99.90
64396;DHT22;50717;53.360;6.290;2022-08-19T10:56:44;25.50;99.90
64396;DHT22;50717;53.360;6.290;2022-08-19T10:59:21;25.60;99.90
64396;DHT22;50717;53.360;6.290;2022-08-19T11:01:48;25.80;99.90
64396;DHT22;50717;53.360;6.290;2022-08-19T11:04:15;25.90;99.90
64396;DHT22;50717;53.360;6.290;2022-08-19T11:06:44;26.00;99.90
64396;DHT22;50717;53.360;6.290;2022-08-19T11:09:16;25.70;99.90
64396;DHT22;50717;53.360;6.290;2022-08-19T11:11:43;26.10;99.90
64396;DHT22;50717;53.360;6.290;2022-08-19T11:14:11;25.60;99.90
64396;DHT22;50717;53.360;6.290;2022-08-19T11:16:37;25.50;99.90
64396;DHT22;50717;53.360;6.290;2022-08-19T11:19:05;25.20;99.90
64396;DHT22;50717;53.360;6.290;2022-08-19T11:21:35;25.00;99.90
64396;DHT22;50717;53.360;6.290;2022-08-19T11:24:04;25.00;99.90
64396;DHT22;50717;53.360;6.290;2022-08-19T11:26:32;24.80;99.90
64396;DHT22;50717;53.360;6.290;2022-08-19T11:28:59;25.20;99.90
64396;DHT22;50717;53.360;6.290;2022-08-19T11:31:28;25.00;99.90
64396;DHT22;50717;53.360;6.290;2022-08-19T11:34:01;25.10;99.90
64396;DHT22;50717;53.360;6.290;2022-08-19T11:36:29;24.70;99.90
64396;DHT22;50717;53.360;6.290;2022-08-19T11:38:55;25.10;99.90
64396;DHT22;50717;53.360;6.290;2022-08-19T11:41:22;25.20;99.90
64396;DHT22;50717;53.360;6.290;2022-08-19T11:43:49;25.10;99.90
64396;DHT22;50717;53.360;6.290;2022-08-19T11:46:16;25.20;99.90
64396;DHT22;50717;53.360;6.290;2022-08-19T11:48:42;25.20;99.90
64396;DHT22;50717;53.360;6.290;2022-08-19T11:51:14;25.40;99.90
64396;DHT22;50717;53.360;6.290;2022-08-19T11:53:40;25.50;99.90
64396;DHT22;50717;53.360;6.290;2022-08-19T11:56:08;25.70;99.90
64396;DHT22;50717;53.360;6.290;2022-08-19T11:58:34;25.50;99.90
64396;DHT22;50717;53.360;6.290;2022-08-19T12:01:00;25.80;99.90
64396;DHT22;50717;53.360;6.290;2022-08-19T12:03:25;25.80;99.90
64396;DHT22;50717;53.360;6.290;2022-08-19T12:05:51;25.50;99.90
64396;DHT22;50717;53.360;6.290;2022-08-19T12:08:18;25.40;99.90
64396;DHT22;50717;53.360;6.290;2022-08-19T12:10:44;25.40;99.90
64396;DHT22;50717;53.360;6.290;2022-08-19T12:13:11;24.60;99.90
64396;DHT22;50717;53.360;6.290;2022-08-19T12:15:40;24.70;99.90
64396;DHT22;50717;53.360;6.290;2022-08-19T12:18:11;24.60;99.90
64396;DHT22;50717;53.360;6.290;2022-08-19T12:20:40;24.60;99.90
64396;DHT22;50717;53.360;6.290;2022-08-19T12:23:09;24.40;99.90
64396;DHT22;50717;53.360;6.290;2022-08-19T12:25:44;24.30;99.90
64396;DHT22;50717;53.360;6.290;2022-08-19T12:28:19;23.90;99.90
64396;DHT22;50717;53.360;6.290;2022-08-19T12:30:45;23.20;99.90
64396;DHT22;50717;53.360;6.290;2022-08-19T12:33:11;22.50;99.90
64396;DHT22;50717;53.360;6.290;2022-08-19T12:35:43;22.50;99.90
64396;DHT22;50717;53.360;6.290;2022-08-19T12:38:10;22.40;99.90
64396;DHT22;50717;53.360;6.290;2022-08-19T12:40:36;22.10;99.90
64396;DHT22;50717;53.360;6.290;2022-08-19T12:43:01;22.30;99.90
64396;DHT22;50717;53.360;6.290;2022-08-19T12:45:27;22.20;99.90
64396;DHT22;50717;53.360;6.290;2022-08-19T12:47:53;22.50;99.90
64396;DHT22;50717;53.360;6.290;2022-08-19T12:50:19;22.70;99.90
64396;DHT22;50717;53.360;6.290;2022-08-19T12:52:47;22.40;99.90
64396;DHT22;50717;53.360;6.290;2022-08-19T12:55:13;22.50;99.90
64396;DHT22;50717;53.360;6.290;2022-08-19T12:57:40;22.70;99.90
64396;DHT22;50717;53.360;6.290;2022-08-19T13:00:17;23.10;99.90
64396;DHT22;50717;53.360;6.290;2022-08-19T13:02:45;22.90;99.90
64396;DHT22;50717;53.360;6.290;2022-08-19T13:05:17;23.10;99.90
64396;DHT22;50717;53.360;6.290;2022-08-19T13:07:45;23.40;99.90
64396;DHT22;50717;53.360;6.290;2022-08-19T13:10:13;23.30;99.90
64396;DHT22;50717;53.360;6.290;2022-08-19T13:12:42;23.50;99.90
64396;DHT22;50717;53.360;6.290;2022-08-19T13:15:08;23.50;99.90
64396;DHT22;50717;53.360;6.290;2022-08-19T13:17:35;23.20;99.90
64396;DHT22;50717;53.360;6.290;2022-08-19T13:20:01;22.70;99.90
64396;DHT22;50717;53.360;6.290;2022-08-19T13:22:27;22.90;99.90
64396;DHT22;50717;53.360;6.290;2022-08-19T13:24:53;22.50;99.90
64396;DHT22;50717;53.360;6.290;2022-08-19T13:27:19;22.40;99.90
64396;DHT22;50717;53.360;6.290;2022-08-19T13:29:44;22.60;99.90
64396;DHT22;50717;53.360;6.290;2022-08-19T13:32:29;22.00;99.90
64396;DHT22;50717;53.360;6.290;2022-08-19T13:35:14;21.80;99.90
64396;DHT22;50717;53.360;6.290;2022-08-19T13:37:40;21.90;99.90
64396;DHT22;50717;53.360;6.290;2022-08-19T13:40:07;22.40;99.90
64396;DHT22;50717;53.360;6.290;2022-08-19T13:42:37;22.50;99.90
64396;DHT22;50717;53.360;6.290;2022-08-19T13:45:03;22.20;99.90
64396;DHT22;50717;53.360;6.290;2022-08-19T13:47:30;22.20;99.90
64396;DHT22;50717;53.360;6.290;2022-08-19T13:49:55;22.10;99.90
64396;DHT22;50717;53.360;6.290;2022-08-19T13:52:21;22.10;99.90
64396;DHT22;50717;53.360;6.290;2022-08-19T13:54:47;22.00;99.90
64396;DHT22;50717;53.360;6.290;2022-08-19T13:57:13;22.00;99.90
64396;DHT22;50717;53.360;6.290;2022-08-19T13:59:39;22.50;99.90
64396;DHT22;50717;53.360;6.290;2022-08-19T14:02:05;22.10;99.90
64396;DHT22;50717;53.360;6.290;2022-08-19T14:04:31;21.90;99.90
64396;DHT22;50717;53.360;6.290;2022-08-19T14:06:56;22.00;99.90
64396;DHT22;50717;53.360;6.290;2022-08-19T14:09:22;21.90;99.90
64396;DHT22;50717;53.360;6.290;2022-08-19T14:11:48;22.00;99.90
64396;DHT22;50717;53.360;6.290;2022-08-19T14:14:15;21.90;99.90
64396;DHT22;50717;53.360;6.290;2022-08-19T14:16:41;22.30;99.90
64396;DHT22;50717;53.360;6.290;2022-08-19T14:19:06;22.00;99.90
64396;DHT22;50717;53.360;6.290;2022-08-19T14:21:33;21.90;99.90
64396;DHT22;50717;53.360;6.290;2022-08-19T14:23:59;21.90;99.90
64396;DHT22;50717;53.360;6.290;2022-08-19T14:26:25;21.90;99.90
64396;DHT22;50717;53.360;6.290;2022-08-19T14:28:51;22.20;99.90
64396;DHT22;50717;53.360;6.290;2022-08-19T14:31:19;22.10;99.90
64396;DHT22;50717;53.360;6.290;2022-08-19T14:33:46;22.10;99.90
64396;DHT22;50717;53.360;6.290;2022-08-19T14:36:12;22.50;99.90
64396;DHT22;50717;53.360;6.290;2022-08-19T14:38:38;22.40;99.90
64396;DHT22;50717;53.360;6.290;2022-08-19T14:41:14;22.30;99.90
64396;DHT22;50717;53.360;6.290;2022-08-19T14:43:41;22.40;99.90
64396;DHT22;50717;53.360;6.290;2022-08-19T14:46:07;22.30;99.90
64396;DHT22;50717;53.360;6.290;2022-08-19T14:48:35;22.00;99.90
64396;DHT22;50717;53.360;6.290;2022-08-19T14:51:04;22.20;99.90
64396;DHT22;50717;53.360;6.290;2022-08-19T14:53:30;22.10;99.90
64396;DHT22;50717;53.360;6.290;2022-08-19T14:55:55;22.10;99.90
64396;DHT22;50717;53.360;6.290;2022-08-19T14:58:21;22.50;99.90
64396;DHT22;50717;53.360;6.290;2022-08-19T15:00:48;22.50;99.90
64396;DHT22;50717;53.360;6.290;2022-08-19T15:03:13;22.20;99.90
64396;DHT22;50717;53.360;6.290;2022-08-19T15:05:39;22.30;99.90
64396;DHT22;50717;53.360;6.290;2022-08-19T15:08:05;22.70;99.90
64396;DHT22;50717;53.360;6.290;2022-08-19T15:10:31;22.90;99.90
64396;DHT22;50717;53.360;6.290;2022-08-19T15:12:56;22.60;99.90
64396;DHT22;50717;53.360;6.290;2022-08-19T15:15:22;22.80;99.90
64396;DHT22;50717;53.360;6.290;2022-08-19T15:17:48;23.00;99.90
64396;DHT22;50717;53.360;6.290;2022-08-19T15:20:17;22.80;99.90
64396;DHT22;50717;53.360;6.290;2022-08-19T15:22:43;22.80;99.90
64396;DHT22;50717;53.360;6.290;2022-08-19T15:25:11;22.80;99.90
64396;DHT22;50717;53.360;6.290;2022-08-19T15:27:38;22.90;99.90
64396;DHT22;50717;53.360;6.290;2022-08-19T15:30:06;22.40;99.90
64396;DHT22;50717;53.360;6.290;2022-08-19T15:32:32;22.70;99.90
64396;DHT22;50717;53.360;6.290;2022-08-19T15:34:58;22.70;99.90
64396;DHT22;50717;53.360;6.290;2022-08-19T15:37:24;22.60;99.90
64396;DHT22;50717;53.360;6.290;2022-08-19T15:39:50;22.90;99.90
64396;DHT22;50717;53.360;6.290;2022-08-19T15:42:16;22.70;99.90